If you wish to contribute or participate in the discussions about articles you are invited to join SKYbrary as a registered user

 Actions

Logroño-Agoncillo Airport

From SKYbrary Wiki

LELO
Airport
ICAO: LELO – IATA: RJL
Summary
Name Logroño-Agoncillo Airport
Region Europe
Territory Spain ES.gif
Location
Serving Logroño-Agoncillo
Elevation 353.873 m
1,161 ft
1,161 ft353.873 m
Type small airport
Coordinates 42° 27' 15.12" N, 2° 19' 14.99" W
Runways
Designator Length Width Surface ROPS


METAR
Observation LELO 240000Z AUTO 26009KT 8000 -RA SCT069 11/10 Q1011
Station Logrono / Agoncillo
Date/Time 24 October 2019 00:00:00
Wind direction 260°
Wind speed 09 kts
Lowest cloud amount scattered clouds
Temperature 11°C
Dew point 10°C
Humidity 93%
QNH 1011 hPa
Weather condition n/a